Time;durP1;ratioP1;P1;durP2;ratioP2;P2;SDS_P1;SDS_P2;PMS_P1;PMS_P2;Temp;Humidity;BMP_temperature;BMP_pressure;BME280_temperature;BME280_humidity;BME280_pressure;Samples;Min_cycle;Max_cycle;Signal;HPM_P1;HPM_P2
2021/08/10 00:00:24;;;;;;;0.70;0.70;;;11.90;99.90;;;;;;4998038;28;20277;-87
2021/08/10 00:02:50;;;;;;;0.60;0.60;;;11.90;99.90;;;;;;4996134;28;20207;-87
2021/08/10 00:05:16;;;;;;;0.60;0.60;;;12.00;99.90;;;;;;4992026;28;20254;-87
2021/08/10 00:07:42;;;;;;;0.57;0.57;;;12.00;99.90;;;;;;4997146;28;20226;-86
2021/08/10 00:10:08;;;;;;;0.70;0.70;;;12.10;99.90;;;;;;4995416;28;20204;-87
2021/08/10 00:12:34;;;;;;;0.50;0.50;;;12.20;99.90;;;;;;4996277;28;20558;-88
2021/08/10 00:15:00;;;;;;;0.63;0.63;;;12.20;99.90;;;;;;4994417;28;20200;-85
2021/08/10 00:17:26;;;;;;;1.02;0.93;;;12.30;99.90;;;;;;5012000;28;20199;-87
2021/08/10 00:19:51;;;;;;;0.40;0.40;;;12.40;99.90;;;;;;4995388;28;20535;-87
2021/08/10 00:22:17;;;;;;;0.50;0.50;;;12.40;99.90;;;;;;4996045;28;20699;-87
2021/08/10 00:24:43;;;;;;;0.60;0.60;;;12.50;99.90;;;;;;4990358;28;20212;-87
2021/08/10 00:27:08;;;;;;;0.70;0.70;;;12.60;99.90;;;;;;4995052;28;20208;-87
2021/08/10 00:29:34;;;;;;;0.60;0.60;;;12.60;99.90;;;;;;4994576;28;20208;-87
2021/08/10 00:32:00;;;;;;;0.60;0.60;;;12.70;99.90;;;;;;4996014;28;20231;-86
2021/08/10 00:34:26;;;;;;;0.50;0.50;;;12.80;99.90;;;;;;4995645;28;20211;-87
2021/08/10 00:36:52;;;;;;;0.90;0.90;;;12.80;99.90;;;;;;4994457;28;20235;-87
2021/08/10 00:39:18;;;;;;;0.52;0.52;;;12.80;99.90;;;;;;4994265;28;20207;-87
2021/08/10 00:41:43;;;;;;;1.20;1.10;;;12.80;99.90;;;;;;4993095;28;20211;-87
2021/08/10 00:44:10;;;;;;;1.80;0.93;;;12.90;99.90;;;;;;4994148;28;20207;-87
2021/08/10 00:46:36;;;;;;;0.50;0.50;;;12.90;99.90;;;;;;4996255;28;20207;-87
2021/08/10 00:49:02;;;;;;;0.70;0.70;;;12.90;99.90;;;;;;4995794;28;20765;-87
2021/08/10 00:51:27;;;;;;;0.50;0.50;;;12.90;99.90;;;;;;4995318;28;20287;-87
2021/08/10 00:53:54;;;;;;;0.57;0.57;;;12.90;99.90;;;;;;4992610;28;20212;-86
2021/08/10 00:56:19;;;;;;;0.52;0.52;;;12.90;99.90;;;;;;4981567;28;20231;-86
2021/08/10 00:58:45;;;;;;;2.53;0.75;;;13.00;99.90;;;;;;4994825;28;20644;-87
2021/08/10 01:01:11;;;;;;;1.00;0.80;;;12.90;99.90;;;;;;4993773;28;20212;-86
2021/08/10 01:03:36;;;;;;;1.15;1.05;;;13.00;99.90;;;;;;5010212;23;20231;-77
2021/08/10 01:06:09;;;;;;;0.73;0.73;;;13.00;99.90;;;;;;4994997;28;20203;-77
2021/08/10 01:08:35;;;;;;;0.60;0.60;;;12.90;99.90;;;;;;4995730;28;20199;-77
2021/08/10 01:11:20;;;;;;;1.30;0.98;;;12.90;99.90;;;;;;4994306;28;20673;-77
2021/08/10 01:14:09;;;;;;;0.40;0.40;;;12.90;99.90;;;;;;5008566;28;20200;-77
2021/08/10 01:17:05;;;;;;;0.80;0.80;;;12.90;99.90;;;;;;4991476;28;20218;-77
2021/08/10 01:19:52;;;;;;;0.45;0.45;;;12.80;99.90;;;;;;4993258;28;20220;-77
2021/08/10 01:22:22;;;;;;;0.70;0.70;;;12.80;99.90;;;;;;4990721;28;20189;-77
2021/08/10 01:24:57;;;;;;;0.63;0.63;;;12.70;99.90;;;;;;4983258;28;20700;-77
2021/08/10 01:27:51;;;;;;;0.68;0.68;;;12.60;99.90;;;;;;4997078;28;20578;-78
2021/08/10 01:30:31;;;;;;;2.05;1.20;;;12.60;99.90;;;;;;5001671;28;20559;-77
2021/08/10 01:33:00;;;;;;;0.57;0.57;;;12.60;99.90;;;;;;4993379;28;20211;-77
2021/08/10 01:35:29;;;;;;;1.02;1.02;;;12.60;99.90;;;;;;4993150;28;20689;-77
2021/08/10 01:37:58;;;;;;;0.70;0.70;;;12.60;99.90;;;;;;4993686;28;20214;-77
2021/08/10 01:40:26;;;;;;;1.08;0.93;;;12.60;99.90;;;;;;5017217;28;20213;-77
2021/08/10 01:42:55;;;;;;;0.80;0.80;;;12.60;99.90;;;;;;5003714;28;20301;-77
2021/08/10 01:45:22;;;;;;;0.93;0.70;;;12.60;99.90;;;;;;4989959;28;20208;-77
2021/08/10 01:47:49;;;;;;;0.60;0.60;;;12.60;99.90;;;;;;4994509;28;20532;-76
2021/08/10 01:50:16;;;;;;;0.90;0.90;;;12.60;99.90;;;;;;4993442;28;20196;-78
2021/08/10 01:52:43;;;;;;;0.60;0.60;;;12.60;99.90;;;;;;4993822;28;20210;-77
2021/08/10 01:55:10;;;;;;;0.70;0.70;;;12.60;99.90;;;;;;4993487;28;20231;-77
2021/08/10 01:57:37;;;;;;;0.52;0.52;;;12.50;99.90;;;;;;4992837;28;20658;-77
2021/08/10 02:00:05;;;;;;;0.50;0.50;;;12.50;99.90;;;;;;4993974;28;20290;-80
2021/08/10 02:02:32;;;;;;;1.23;1.13;;;12.50;99.90;;;;;;4992092;28;20597;-77
2021/08/10 02:05:00;;;;;;;0.50;0.50;;;12.50;99.90;;;;;;5007988;28;20204;-77
2021/08/10 02:07:26;;;;;;;1.00;0.95;;;12.40;99.90;;;;;;4996399;28;20195;-77
2021/08/10 02:09:53;;;;;;;0.70;0.70;;;12.40;99.90;;;;;;4992917;28;20203;-78
2021/08/10 02:12:20;;;;;;;0.50;0.50;;;12.40;99.90;;;;;;4995075;28;20205;-77
2021/08/10 02:14:46;;;;;;;0.93;0.93;;;12.40;99.90;;;;;;4994308;28;20654;-77
2021/08/10 02:17:15;;;;;;;0.90;0.90;;;12.40;99.90;;;;;;4993184;28;20219;-77
2021/08/10 02:19:41;;;;;;;0.80;0.80;;;12.40;99.90;;;;;;4976792;28;20655;-77
2021/08/10 02:22:13;;;;;;;0.70;0.70;;;12.40;99.90;;;;;;4992588;28;20226;-77
2021/08/10 02:24:50;;;;;;;0.90;0.90;;;12.40;99.90;;;;;;4978337;28;20204;-77
2021/08/10 02:27:27;;;;;;;0.75;0.75;;;12.40;99.90;;;;;;4994014;28;20212;-77
2021/08/10 02:29:57;;;;;;;0.50;0.50;;;12.40;99.90;;;;;;4993598;28;20246;-77
2021/08/10 02:32:25;;;;;;;1.92;0.75;;;12.40;99.90;;;;;;4992403;28;20223;-77
2021/08/10 02:34:52;;;;;;;0.55;0.55;;;12.40;99.90;;;;;;4992418;28;20549;-77
2021/08/10 02:37:19;;;;;;;0.63;0.63;;;12.30;99.90;;;;;;4994744;28;20211;-77
2021/08/10 02:39:47;;;;;;;0.50;0.50;;;12.30;99.90;;;;;;4989908;28;20214;-77
2021/08/10 02:44:51;;;;;;;0.63;0.63;;;12.30;99.90;;;;;;5011736;28;20581;-80
2021/08/10 02:47:18;;;;;;;0.85;0.85;;;12.30;99.90;;;;;;5009538;28;20204;-79
2021/08/10 02:49:44;;;;;;;0.50;0.50;;;12.30;99.90;;;;;;5007208;28;20195;-79
2021/08/10 02:52:12;;;;;;;9.48;1.60;;;12.30;99.90;;;;;;5012890;28;20742;-80
2021/08/10 02:54:39;;;;;;;1.05;0.75;;;12.30;99.90;;;;;;5011721;28;20569;-79
2021/08/10 02:57:17;;;;;;;0.70;0.70;;;12.30;99.90;;;;;;5012051;28;20287;-79
2021/08/10 02:59:52;;;;;;;0.90;0.88;;;12.30;99.90;;;;;;5008726;28;20728;-79
2021/08/10 03:02:20;;;;;;;0.80;0.80;;;12.30;99.90;;;;;;5007854;28;20242;-80
2021/08/10 03:04:55;;;;;;;0.52;0.52;;;12.30;99.90;;;;;;5007951;28;20724;-80
2021/08/10 03:07:24;;;;;;;0.60;0.60;;;12.30;99.90;;;;;;5012638;28;20574;-80
2021/08/10 03:09:54;;;;;;;0.70;0.70;;;12.30;99.90;;;;;;5010798;28;20191;-79
2021/08/10 03:12:22;;;;;;;0.60;0.60;;;12.30;99.90;;;;;;5012604;28;20202;-80
2021/08/10 03:14:50;;;;;;;0.70;0.70;;;12.30;99.90;;;;;;5023688;28;20565;-80
2021/08/10 03:17:17;;;;;;;0.50;0.50;;;12.30;99.90;;;;;;5018669;28;20203;-80
2021/08/10 03:19:44;;;;;;;0.93;0.93;;;12.20;99.90;;;;;;5011657;28;20211;-80
2021/08/10 03:22:11;;;;;;;0.50;0.50;;;12.30;99.90;;;;;;5009430;28;20258;-80
2021/08/10 03:24:38;;;;;;;0.60;0.60;;;12.20;99.90;;;;;;5005332;28;20210;-80
2021/08/10 03:27:05;;;;;;;0.70;0.70;;;12.30;99.90;;;;;;5010594;28;20721;-79
2021/08/10 03:29:34;;;;;;;0.50;0.50;;;12.20;99.90;;;;;;5001901;28;20210;-80
2021/08/10 03:32:02;;;;;;;0.80;0.80;;;12.30;99.90;;;;;;5011594;28;20206;-80
2021/08/10 03:34:28;;;;;;;0.50;0.50;;;12.30;99.90;;;;;;5011473;28;20198;-80
2021/08/10 03:36:55;;;;;;;0.73;0.70;;;12.30;99.90;;;;;;5011937;28;20210;-80
2021/08/10 03:39:21;;;;;;;4.38;1.67;;;12.30;99.90;;;;;;5011338;28;20252;-80
2021/08/10 03:41:47;;;;;;;4.25;0.57;;;12.30;99.90;;;;;;5011676;28;20278;-80
2021/08/10 03:44:14;;;;;;;0.80;0.80;;;12.30;99.90;;;;;;5012100;28;20325;-80
2021/08/10 03:46:41;;;;;;;0.90;0.90;;;12.30;99.90;;;;;;5011859;28;20735;-79
2021/08/10 03:49:07;;;;;;;0.60;0.60;;;12.40;99.90;;;;;;5012492;28;20697;-80
2021/08/10 03:51:35;;;;;;;0.70;0.70;;;12.50;99.90;;;;;;5008215;28;20200;-79
2021/08/10 03:54:01;;;;;;;1.42;0.90;;;12.60;99.90;;;;;;4997046;28;20210;-80
2021/08/10 03:56:27;;;;;;;1.05;0.95;;;12.70;99.90;;;;;;5012561;28;20207;-80
2021/08/10 03:58:54;;;;;;;0.55;0.55;;;12.80;99.90;;;;;;5011385;28;20202;-80
2021/08/10 04:01:23;;;;;;;0.40;0.40;;;12.90;99.90;;;;;;4991953;28;20231;-81
2021/08/10 04:03:50;;;;;;;0.50;0.50;;;12.90;99.90;;;;;;4994234;28;20222;-80
2021/08/10 04:06:16;;;;;;;0.60;0.60;;;13.00;99.90;;;;;;5009826;28;20560;-80
2021/08/10 04:08:43;;;;;;;0.55;0.55;;;13.10;99.90;;;;;;4993876;28;20262;-79
2021/08/10 04:11:09;;;;;;;3.40;0.88;;;13.20;99.90;;;;;;5045222;28;20222;-79
2021/08/10 04:13:35;;;;;;;0.50;0.50;;;13.20;99.90;;;;;;5013373;28;20654;-80
2021/08/10 04:16:04;;;;;;;0.40;0.40;;;13.30;99.90;;;;;;5009227;28;20199;-80
2021/08/10 04:18:33;;;;;;;0.60;0.60;;;13.30;99.90;;;;;;4996269;28;20231;-80
2021/08/10 04:20:58;;;;;;;0.70;0.70;;;13.40;99.90;;;;;;5010501;28;20234;-80
2021/08/10 04:23:25;;;;;;;0.52;0.52;;;13.50;99.90;;;;;;5009541;28;20631;-80
2021/08/10 04:25:51;;;;;;;1.08;0.98;;;13.50;99.90;;;;;;4995979;28;20689;-80
2021/08/10 04:28:17;;;;;;;0.60;0.60;;;13.60;99.90;;;;;;5011108;28;20558;-80
2021/08/10 04:30:45;;;;;;;0.50;0.50;;;13.60;99.90;;;;;;5012771;28;20198;-81
2021/08/10 04:33:11;;;;;;;1.73;1.55;;;13.50;99.90;;;;;;5014521;28;20209;-80
2021/08/10 04:35:37;;;;;;;0.73;0.73;;;13.60;99.90;;;;;;5015195;28;20214;-81
2021/08/10 04:38:04;;;;;;;0.50;0.50;;;13.60;99.90;;;;;;5015490;28;20199;-80
2021/08/10 04:40:30;;;;;;;0.68;0.68;;;13.60;99.90;;;;;;5015031;28;20622;-80
2021/08/10 04:42:57;;;;;;;0.50;0.50;;;13.70;99.90;;;;;;5010942;28;20231;-80
2021/08/10 04:45:23;;;;;;;0.45;0.45;;;13.70;99.90;;;;;;5013291;28;20282;-80
2021/08/10 04:47:48;;;;;;;0.50;0.50;;;13.80;99.90;;;;;;5016648;28;20630;-80
2021/08/10 04:50:14;;;;;;;3.45;1.25;;;13.90;99.90;;;;;;5011797;28;20682;-80
2021/08/10 04:52:40;;;;;;;0.40;0.40;;;14.00;99.90;;;;;;5008932;28;20210;-80
2021/08/10 04:55:07;;;;;;;0.90;0.82;;;14.10;99.90;;;;;;5015000;28;20218;-80
2021/08/10 04:57:33;;;;;;;0.60;0.60;;;14.20;99.90;;;;;;5014074;28;20203;-80
2021/08/10 04:59:59;;;;;;;0.50;0.50;;;14.30;99.90;;;;;;5011697;28;20207;-80
2021/08/10 05:02:24;;;;;;;0.70;0.65;;;14.40;99.90;;;;;;5009473;28;20300;-80
2021/08/10 05:04:50;;;;;;;0.98;0.70;;;14.50;99.90;;;;;;5029882;28;20203;-80
2021/08/10 05:07:16;;;;;;;1.52;1.42;;;14.60;99.90;;;;;;5012637;28;20226;-80
2021/08/10 05:09:42;;;;;;;0.77;0.77;;;14.70;99.90;;;;;;5006284;28;20569;-80
2021/08/10 05:12:08;;;;;;;1.05;0.95;;;14.70;99.90;;;;;;5020591;28;20609;-80
2021/08/10 05:14:34;;;;;;;0.95;0.95;;;14.80;99.90;;;;;;5014476;28;20206;-80
2021/08/10 05:17:00;;;;;;;0.50;0.50;;;14.80;99.90;;;;;;5013770;28;20298;-80
2021/08/10 05:19:26;;;;;;;0.45;0.45;;;14.80;99.90;;;;;;5014449;28;20207;-79
2021/08/10 05:21:51;;;;;;;0.70;0.70;;;14.90;99.90;;;;;;5017830;28;20206;-79
2021/08/10 05:24:17;;;;;;;1.65;0.80;;;14.90;99.90;;;;;;5025545;28;20219;-80
2021/08/10 05:26:43;;;;;;;0.77;0.77;;;15.00;99.90;;;;;;4998019;28;20290;-79
2021/08/10 05:29:08;;;;;;;1.17;0.98;;;15.10;99.90;;;;;;5012540;28;20621;-79
2021/08/10 05:31:34;;;;;;;1.45;0.95;;;15.20;99.90;;;;;;5013494;28;20199;-79
2021/08/10 05:34:00;;;;;;;1.13;1.02;;;15.20;99.90;;;;;;5012293;28;20203;-80
2021/08/10 05:36:25;;;;;;;6.85;1.38;;;15.30;99.90;;;;;;4995930;28;20211;-80
2021/08/10 05:38:54;;;;;;;0.55;0.55;;;15.40;99.90;;;;;;5029089;28;20722;-79
2021/08/10 05:41:21;;;;;;;2.08;0.90;;;15.60;99.90;;;;;;5012649;28;20218;-81
2021/08/10 05:43:47;;;;;;;1.23;1.08;;;15.70;99.90;;;;;;5013658;28;20262;-80
2021/08/10 05:46:13;;;;;;;1.05;1.05;;;15.90;99.90;;;;;;5014027;28;20214;-80
2021/08/10 05:48:39;;;;;;;0.70;0.70;;;16.00;99.90;;;;;;5011783;28;20202;-80
2021/08/10 05:51:05;;;;;;;0.60;0.60;;;16.30;99.90;;;;;;5000848;28;20203;-80
2021/08/10 05:53:34;;;;;;;0.73;0.73;;;16.60;99.90;;;;;;5009466;28;20290;-80
2021/08/10 05:56:01;;;;;;;0.80;0.80;;;16.90;99.90;;;;;;5013076;28;20665;-81
2021/08/10 05:58:27;;;;;;;0.65;0.65;;;17.10;99.90;;;;;;5013693;28;20239;-80
2021/08/10 06:00:54;;;;;;;0.80;0.73;;;17.30;99.90;;;;;;5012977;28;20202;-80
2021/08/10 06:03:20;;;;;;;0.55;0.55;;;17.30;99.90;;;;;;5008901;28;20234;-81
2021/08/10 06:05:46;;;;;;;1.38;1.25;;;17.20;99.90;;;;;;5008478;28;20609;-80
2021/08/10 06:08:11;;;;;;;1.75;1.17;;;16.90;99.90;;;;;;5012436;28;20210;-81
2021/08/10 06:10:37;;;;;;;1.02;0.93;;;16.70;99.90;;;;;;5012480;28;20211;-80
2021/08/10 06:13:03;;;;;;;0.90;0.82;;;16.60;99.90;;;;;;5014375;28;20206;-81
2021/08/10 06:15:29;;;;;;;1.33;1.23;;;16.60;99.90;;;;;;5012386;28;20206;-82
2021/08/10 06:17:55;;;;;;;0.82;0.80;;;16.60;99.90;;;;;;5014512;28;20543;-81
2021/08/10 06:20:22;;;;;;;0.73;0.50;;;16.70;99.90;;;;;;5008781;28;20214;-81
2021/08/10 06:22:49;;;;;;;4.25;0.80;;;16.60;99.90;;;;;;4999451;28;20662;-80
2021/08/10 06:25:18;;;;;;;0.50;0.50;;;16.70;99.90;;;;;;5012520;28;20260;-82
2021/08/10 06:27:43;;;;;;;0.90;0.90;;;16.70;99.90;;;;;;5009117;28;20659;-82
2021/08/10 06:30:10;;;;;;;0.40;0.40;;;16.80;99.90;;;;;;4997525;28;20201;-82
2021/08/10 06:32:36;;;;;;;1.45;0.60;;;16.80;99.90;;;;;;5010506;28;20227;-81
2021/08/10 06:35:02;;;;;;;0.93;0.80;;;17.00;99.90;;;;;;5029285;28;20214;-82
2021/08/10 06:37:28;;;;;;;0.45;0.40;;;17.10;99.90;;;;;;4994946;28;20199;-81
2021/08/10 06:39:54;;;;;;;8.88;2.78;;;17.30;99.90;;;;;;5012841;28;20198;-82
2021/08/10 06:42:21;;;;;;;0.85;0.70;;;17.30;99.90;;;;;;5012736;28;20276;-82
2021/08/10 06:44:47;;;;;;;1.20;1.10;;;17.40;99.90;;;;;;5013072;28;20222;-81
2021/08/10 06:47:15;;;;;;;1.35;1.25;;;17.60;99.90;;;;;;5026862;28;20208;-83
2021/08/10 06:49:42;;;;;;;0.47;0.47;;;17.60;99.90;;;;;;5012336;28;20218;-79
2021/08/10 06:52:09;;;;;;;1.30;1.20;;;17.80;99.90;;;;;;5012076;28;20202;-78
2021/08/10 06:54:35;;;;;;;7.53;2.35;;;17.80;99.90;;;;;;5006765;28;20640;-78
2021/08/10 06:57:06;;;;;;;0.88;0.80;;;17.80;99.90;;;;;;5009172;28;20211;-78
2021/08/10 06:59:35;;;;;;;1.60;0.90;;;17.80;99.90;;;;;;5010439;28;20230;-78
2021/08/10 07:02:02;;;;;;;0.85;0.73;;;17.70;99.90;;;;;;5026148;28;20243;-78
2021/08/10 07:04:28;;;;;;;8.57;1.13;;;17.70;99.90;;;;;;5012769;28;20210;-78
2021/08/10 07:06:53;;;;;;;1.20;0.98;;;17.60;99.90;;;;;;5011571;28;20290;-80
2021/08/10 07:09:21;;;;;;;0.32;0.32;;;17.70;99.90;;;;;;5011426;28;20207;-80
2021/08/10 07:11:48;;;;;;;0.60;0.60;;;17.90;99.90;;;;;;5010520;28;20277;-81
2021/08/10 07:14:13;;;;;;;3.80;1.70;;;18.10;99.90;;;;;;5008132;28;20653;-81
2021/08/10 07:16:41;;;;;;;0.40;0.40;;;18.30;99.90;;;;;;5005737;28;20306;-82
2021/08/10 07:19:07;;;;;;;0.52;0.52;;;18.50;99.90;;;;;;5008372;28;20203;-81
2021/08/10 07:21:33;;;;;;;0.65;0.65;;;18.80;99.90;;;;;;5022327;28;20209;-79
2021/08/10 07:23:59;;;;;;;0.40;0.40;;;19.00;99.90;;;;;;5017901;28;20214;-80
2021/08/10 07:26:28;;;;;;;0.65;0.65;;;19.00;99.90;;;;;;5013845;28;20202;-81
2021/08/10 07:28:54;;;;;;;0.65;0.65;;;18.90;99.90;;;;;;5013701;28;20210;-81
2021/08/10 07:31:20;;;;;;;0.50;0.50;;;18.50;99.90;;;;;;5011577;28;20199;-81
2021/08/10 07:33:45;;;;;;;1.25;0.98;;;18.40;99.90;;;;;;5010382;28;20206;-81
2021/08/10 07:36:26;;;;;;;8.18;1.75;;;18.30;99.90;;;;;;5012257;28;20656;-81
2021/08/10 07:38:52;;;;;;;4.85;0.70;;;18.20;99.90;;;;;;5011426;28;20213;-81
2021/08/10 07:41:17;;;;;;;0.45;0.45;;;18.30;99.90;;;;;;5011162;28;20575;-81
2021/08/10 07:43:43;;;;;;;0.40;0.40;;;18.40;99.90;;;;;;5010670;28;20285;-81
2021/08/10 07:46:09;;;;;;;0.60;0.60;;;18.70;99.90;;;;;;5012539;28;20253;-79
2021/08/10 07:48:35;;;;;;;0.60;0.60;;;19.00;99.90;;;;;;5012075;28;20238;-80
2021/08/10 07:51:01;;;;;;;0.88;0.85;;;19.30;99.90;;;;;;5010200;28;20285;-78
2021/08/10 07:53:27;;;;;;;0.88;0.88;;;19.70;99.90;;;;;;5013633;28;20309;-78
2021/08/10 07:55:52;;;;;;;0.30;0.30;;;19.90;99.90;;;;;;5025209;28;20245;-80
2021/08/10 07:58:20;;;;;;;1.10;0.68;;;20.20;99.90;;;;;;5011731;28;20281;-84
2021/08/10 08:00:46;;;;;;;0.55;0.55;;;20.40;99.90;;;;;;5010339;28;20651;-80
2021/08/10 08:03:12;;;;;;;0.70;0.70;;;20.50;99.90;;;;;;5011348;28;20211;-80
2021/08/10 08:05:38;;;;;;;0.75;0.32;;;20.30;99.90;;;;;;5012399;28;20200;-80
2021/08/10 08:08:04;;;;;;;0.68;0.68;;;20.40;99.90;;;;;;5000136;28;20191;-80
2021/08/10 08:10:30;;;;;;;0.40;0.40;;;20.70;99.90;;;;;;5015294;28;20195;-81
2021/08/10 08:12:56;;;;;;;1.00;0.95;;;21.00;99.90;;;;;;5016000;28;20187;-82
2021/08/10 08:15:22;;;;;;;5.97;1.25;;;21.20;99.90;;;;;;5015451;28;20253;-82
2021/08/10 08:17:48;;;;;;;0.45;0.40;;;20.90;99.90;;;;;;5015064;28;20194;-82
2021/08/10 08:20:14;;;;;;;1.27;0.65;;;21.00;99.90;;;;;;5011736;28;20283;-82
2021/08/10 08:22:40;;;;;;;0.40;0.40;;;21.20;99.90;;;;;;5010549;28;20250;-83
2021/08/10 08:25:06;;;;;;;10.80;1.33;;;21.50;99.90;;;;;;4998040;28;20643;-82
2021/08/10 08:27:32;;;;;;;1.08;0.82;;;21.40;99.90;;;;;;5011272;28;20567;-79
2021/08/10 08:29:58;;;;;;;0.38;0.38;;;21.10;99.90;;;;;;5015405;28;20213;-80
2021/08/10 08:32:24;;;;;;;0.40;0.40;;;20.40;99.90;;;;;;5015176;28;20341;-82
2021/08/10 08:34:49;;;;;;;0.73;0.52;;;20.60;99.90;;;;;;5027731;28;20210;-81
2021/08/10 08:37:17;;;;;;;1.85;0.55;;;21.10;99.90;;;;;;5018375;28;20199;-80
2021/08/10 08:39:43;;;;;;;18.10;0.77;;;21.70;99.90;;;;;;5006010;28;20246;-79
2021/08/10 08:42:11;;;;;;;0.65;0.65;;;21.90;99.90;;;;;;5004755;28;20235;-82
2021/08/10 08:44:38;;;;;;;0.52;0.52;;;22.30;99.90;;;;;;4995591;28;20239;-83
2021/08/10 08:47:05;;;;;;;0.30;0.30;;;22.60;99.90;;;;;;4997933;28;20214;-83
2021/08/10 08:49:32;;;;;;;4.43;0.63;;;22.90;99.90;;;;;;5006452;28;20210;-82
2021/08/10 08:52:12;;;;;;;2.15;0.77;;;22.90;99.90;;;;;;5016152;28;20199;-81
2021/08/10 08:54:39;;;;;;;0.40;0.40;;;22.70;99.90;;;;;;5011226;28;20207;-83
2021/08/10 08:57:05;;;;;;;0.50;0.50;;;22.90;99.90;;;;;;5005237;28;20289;-82
2021/08/10 08:59:31;;;;;;;2.55;0.82;;;23.10;99.90;;;;;;5014208;28;20293;-82
2021/08/10 09:01:57;;;;;;;1.52;1.02;;;23.30;99.90;;;;;;5015259;28;20292;-82
2021/08/10 09:04:23;;;;;;;0.28;0.28;;;23.40;99.90;;;;;;5014576;28;20268;-83
2021/08/10 09:06:49;;;;;;;8.40;0.95;;;23.30;99.90;;;;;;5014725;28;20195;-83
2021/08/10 09:09:27;;;;;;;0.77;0.77;;;23.10;99.90;;;;;;5013727;28;20205;-83
2021/08/10 09:11:55;;;;;;;0.43;0.30;;;23.30;99.90;;;;;;5015953;28;20263;-82
2021/08/10 09:14:24;;;;;;;0.50;0.50;;;23.40;99.90;;;;;;5028613;28;20203;-81
2021/08/10 09:17:37;;;;;;;0.55;0.40;;;23.50;99.90;;;;;;5011640;28;20653;-85
2021/08/10 09:20:03;;;;;;;1.45;0.45;;;23.50;99.90;;;;;;5014815;28;20666;-79
2021/08/10 09:22:33;;;;;;;0.30;0.30;;;23.60;99.90;;;;;;5013271;28;20195;-80
2021/08/10 09:25:06;;;;;;;0.30;0.30;;;23.70;99.90;;;;;;5014501;28;20668;-82
2021/08/10 09:28:01;;;;;;;0.45;0.45;;;24.00;99.90;;;;;;5014191;28;20203;-81
2021/08/10 09:30:27;;;;;;;0.50;0.50;;;23.80;99.90;;;;;;5011006;28;20211;-81
2021/08/10 09:32:53;;;;;;;0.30;0.30;;;23.90;99.90;;;;;;5004295;28;20206;-83
2021/08/10 09:35:25;;;;;;;0.20;0.20;;;23.70;99.90;;;;;;5013338;28;20289;-84
2021/08/10 09:38:03;;;;;;;0.30;0.30;;;23.70;99.90;;;;;;5014145;28;20666;-81
2021/08/10 09:40:36;;;;;;;3.10;0.60;;;23.50;99.90;;;;;;5022196;28;20622;-81
2021/08/10 09:43:17;;;;;;;2.35;0.63;;;23.70;99.90;;;;;;5021072;28;20219;-82
2021/08/10 09:45:43;;;;;;;0.47;0.47;;;24.10;99.90;;;;;;5010053;28;20555;-82
2021/08/10 09:48:16;;;;;;;0.30;0.30;;;24.30;99.90;;;;;;4998080;28;20204;-82
2021/08/10 09:50:42;;;;;;;0.45;0.45;;;24.30;99.90;;;;;;5003193;28;20246;-82
2021/08/10 09:53:19;;;;;;;0.40;0.40;;;24.20;99.90;;;;;;5030781;28;20290;-82
2021/08/10 09:55:55;;;;;;;0.35;0.20;;;24.20;99.90;;;;;;4993546;28;20203;-82
2021/08/10 09:58:21;;;;;;;0.32;0.32;;;24.20;99.90;;;;;;5009017;28;20210;-82
2021/08/10 10:00:49;;;;;;;0.80;0.68;;;24.30;99.90;;;;;;5013093;28;20556;-82
2021/08/10 10:03:19;;;;;;;0.60;0.60;;;24.10;99.90;;;;;;5003268;28;20727;-81
2021/08/10 10:05:46;;;;;;;14.07;0.55;;;24.30;99.90;;;;;;4995003;28;20681;-82
2021/08/10 10:08:16;;;;;;;0.15;0.15;;;24.60;99.90;;;;;;4996382;28;20667;-82
2021/08/10 10:10:43;;;;;;;0.63;0.60;;;24.90;99.90;;;;;;5001266;28;20195;-82
2021/08/10 10:13:14;;;;;;;2.65;0.70;;;25.00;99.90;;;;;;5007038;28;20206;-83
2021/08/10 10:15:41;;;;;;;0.20;0.20;;;24.80;99.90;;;;;;5013800;28;20214;-83
2021/08/10 10:18:07;;;;;;;0.73;0.73;;;24.20;99.90;;;;;;5010414;28;20245;-82
2021/08/10 10:20:41;;;;;;;0.20;0.20;;;24.20;99.90;;;;;;5008485;28;20218;-83
2021/08/10 10:23:09;;;;;;;0.68;0.52;;;24.50;99.90;;;;;;5013519;28;20576;-82
2021/08/10 10:25:35;;;;;;;0.55;0.55;;;24.50;99.90;;;;;;5012463;28;20253;-82
2021/08/10 10:28:02;;;;;;;0.10;0.10;;;24.50;99.90;;;;;;5013290;28;20294;-82
2021/08/10 10:30:28;;;;;;;0.50;0.50;;;24.80;99.90;;;;;;5013542;28;20218;-81
2021/08/10 10:32:54;;;;;;;1.15;0.77;;;25.10;99.90;;;;;;5013803;28;20203;-82
2021/08/10 10:35:21;;;;;;;1.25;0.95;;;25.00;99.90;;;;;;5013067;28;20680;-83
2021/08/10 10:37:48;;;;;;;0.20;0.20;;;24.70;99.90;;;;;;5012439;28;20638;-82
2021/08/10 10:40:17;;;;;;;1.55;0.77;;;23.80;99.90;;;;;;5013280;28;20233;-82
2021/08/10 10:42:46;;;;;;;0.52;0.47;;;23.80;99.90;;;;;;5011726;28;20253;-82
2021/08/10 10:45:30;;;;;;;3.70;1.45;;;23.80;99.90;;;;;;5013221;28;20199;-82
2021/08/10 10:47:56;;;;;;;0.20;0.20;;;23.40;99.90;;;;;;5013469;28;20194;-82
2021/08/10 10:50:22;;;;;;;0.73;0.68;;;23.20;99.90;;;;;;5045900;28;20198;-84
2021/08/10 10:53:05;;;;;;;0.60;0.60;;;22.90;99.90;;;;;;5013273;28;20203;-83
2021/08/10 10:55:37;;;;;;;0.22;0.22;;;23.10;99.90;;;;;;5012047;28;20203;-83
2021/08/10 10:58:23;;;;;;;0.40;0.40;;;23.80;99.90;;;;;;5012925;28;20248;-83
2021/08/10 11:01:09;;;;;;;0.47;0.47;;;24.70;99.90;;;;;;5008576;28;20233;-83
2021/08/10 11:03:35;;;;;;;0.30;0.30;;;25.30;99.90;;;;;;5006398;28;20600;-82
2021/08/10 11:06:30;;;;;;;0.35;0.35;;;25.60;99.90;;;;;;5004270;28;20210;-82
2021/08/10 11:08:57;;;;;;;0.35;0.35;;;25.60;99.90;;;;;;5005171;28;20269;-82
2021/08/10 11:11:45;;;;;;;0.65;0.50;;;25.40;99.90;;;;;;5009347;28;20207;-82
2021/08/10 11:14:49;;;;;;;0.77;0.60;;;25.60;99.90;;;;;;5008339;28;20206;-82
2021/08/10 11:17:15;;;;;;;0.20;0.20;;;25.60;99.90;;;;;;4953604;28;20227;-82
2021/08/10 11:19:49;;;;;;;0.20;0.20;;;25.50;99.90;;;;;;4937573;29;20221;-82
2021/08/10 11:22:18;;;;;;;0.30;0.30;;;25.50;99.90;;;;;;4933920;28;20220;-82
2021/08/10 11:24:47;;;;;;;0.45;0.35;;;25.30;99.90;;;;;;4935079;28;20225;-83
2021/08/10 11:27:30;;;;;;;0.35;0.35;;;25.60;99.90;;;;;;4953629;28;20630;-84
2021/08/10 11:29:56;;;;;;;0.40;0.40;;;25.90;99.90;;;;;;4937386;28;20727;-84
2021/08/10 11:32:41;;;;;;;2.72;0.75;;;25.80;99.90;;;;;;4936443;28;20208;-83
2021/08/10 11:35:34;;;;;;;0.40;0.40;;;25.90;99.90;;;;;;4938788;28;20208;-83
2021/08/10 11:38:06;;;;;;;0.38;0.30;;;25.90;99.90;;;;;;4939469;28;20212;-82
2021/08/10 11:41:07;;;;;;;0.45;0.45;;;25.60;99.90;;;;;;4936755;29;20204;-83
2021/08/10 11:43:44;;;;;;;0.10;0.10;;;26.10;99.90;;;;;;4889316;29;20239;-83
2021/08/10 11:46:20;;;;;;;0.47;0.47;;;26.10;99.20;;;;;;4882721;29;20218;-83
2021/08/10 11:48:50;;;;;;;1.05;0.65;;;26.20;97.80;;;;;;4881302;29;20668;-83
2021/08/10 11:51:16;;;;;;;0.20;0.20;;;26.20;99.50;;;;;;4892145;29;20310;-83
2021/08/10 11:53:41;;;;;;;0.20;0.20;;;26.30;99.90;;;;;;4900140;29;20241;-83
2021/08/10 11:56:27;;;;;;;0.60;0.60;;;26.30;99.30;;;;;;4905485;29;20221;-82
2021/08/10 11:58:54;;;;;;;0.20;0.20;;;26.10;99.90;;;;;;4905851;29;20217;-83
2021/08/10 12:01:21;;;;;;;0.20;0.20;;;26.20;99.90;;;;;;4908713;29;20206;-84
2021/08/10 12:03:47;;;;;;;0.22;0.17;;;26.40;99.90;;;;;;4906536;29;20249;-83
2021/08/10 12:06:13;;;;;;;0.20;0.20;;;26.50;99.90;;;;;;4900006;29;20206;-83
2021/08/10 12:08:40;;;;;;;0.20;0.20;;;26.90;99.90;;;;;;4883881;29;20206;-83
2021/08/10 12:11:06;;;;;;;0.40;0.40;;;26.80;96.80;;;;;;4901946;29;20211;-83
2021/08/10 12:13:32;;;;;;;2.22;0.60;;;26.20;98.60;;;;;;4909308;29;20785;-83
2021/08/10 12:15:58;;;;;;;0.28;0.28;;;26.00;99.90;;;;;;4899547;29;20587;-85
2021/08/10 12:18:26;;;;;;;0.45;0.45;;;25.80;99.80;;;;;;4963326;28;20235;-83
2021/08/10 12:21:01;;;;;;;0.15;0.15;;;26.00;99.90;;;;;;4975870;28;20675;-82
2021/08/10 12:23:37;;;;;;;0.17;0.17;;;25.80;99.90;;;;;;4975649;28;20607;-83
2021/08/10 12:26:16;;;;;;;0.20;0.20;;;25.80;99.90;;;;;;4977057;28;20262;-82
2021/08/10 12:29:00;;;;;;;0.20;0.20;;;25.70;99.90;;;;;;4983639;28;20202;-82
2021/08/10 12:31:30;;;;;;;0.35;0.32;;;25.20;99.90;;;;;;4982880;28;20316;-88
2021/08/10 12:33:57;;;;;;;0.65;0.52;;;25.00;99.90;;;;;;4976402;28;20239;-84
2021/08/10 12:36:27;;;;;;;0.28;0.28;;;25.30;99.90;;;;;;4976373;28;20619;-85
2021/08/10 12:38:53;;;;;;;1.65;0.75;;;25.20;99.90;;;;;;4976568;28;20208;-82
2021/08/10 12:41:23;;;;;;;0.20;0.20;;;25.50;99.90;;;;;;4975222;28;20214;-82
2021/08/10 12:43:59;;;;;;;0.15;0.15;;;24.90;99.90;;;;;;4997009;28;20230;-83
2021/08/10 12:46:34;;;;;;;0.85;0.55;;;25.20;99.90;;;;;;5016425;28;20203;-81
2021/08/10 12:49:10;;;;;;;0.30;0.30;;;25.30;99.90;;;;;;5014148;28;20207;-82
2021/08/10 12:52:13;;;;;;;0.22;0.22;;;25.40;99.90;;;;;;5013623;28;20212;-85
2021/08/10 12:54:53;;;;;;;1.00;0.70;;;25.00;99.90;;;;;;5012077;28;20412;-75
2021/08/10 12:57:30;;;;;;;0.20;0.20;;;24.80;99.90;;;;;;5014149;28;20313;-74